sensor_id;sensor_type;location;lat;lon;timestamp;P1;durP1;ratioP1;P2;durP2;ratioP2
37459;SDS011;23318;50.966;5.284;2023-07-13T00:01:43;3.17;;;1.25;;
37459;SDS011;23318;50.966;5.284;2023-07-13T00:04:08;5.93;;;1.63;;
37459;SDS011;23318;50.966;5.284;2023-07-13T00:06:34;6.60;;;1.25;;
37459;SDS011;23318;50.966;5.284;2023-07-13T00:09:00;7.53;;;1.20;;
37459;SDS011;23318;50.966;5.284;2023-07-13T00:11:26;7.72;;;1.50;;
37459;SDS011;23318;50.966;5.284;2023-07-13T00:13:52;4.80;;;1.17;;
37459;SDS011;23318;50.966;5.284;2023-07-13T00:16:18;7.15;;;1.45;;
37459;SDS011;23318;50.966;5.284;2023-07-13T00:18:44;7.50;;;1.30;;
37459;SDS011;23318;50.966;5.284;2023-07-13T00:21:10;8.50;;;1.02;;
37459;SDS011;23318;50.966;5.284;2023-07-13T00:23:38;6.30;;;1.38;;
37459;SDS011;23318;50.966;5.284;2023-07-13T00:26:05;9.32;;;1.40;;
37459;SDS011;23318;50.966;5.284;2023-07-13T00:28:33;7.05;;;1.50;;
37459;SDS011;23318;50.966;5.284;2023-07-13T00:30:58;6.30;;;1.58;;
37459;SDS011;23318;50.966;5.284;2023-07-13T00:33:26;2.83;;;1.20;;
37459;SDS011;23318;50.966;5.284;2023-07-13T00:35:54;4.90;;;1.10;;
37459;SDS011;23318;50.966;5.284;2023-07-13T00:38:20;6.50;;;1.60;;
37459;SDS011;23318;50.966;5.284;2023-07-13T00:40:46;6.72;;;1.77;;
37459;SDS011;23318;50.966;5.284;2023-07-13T00:43:13;6.13;;;1.55;;
37459;SDS011;23318;50.966;5.284;2023-07-13T00:48:10;10.80;;;1.80;;
37459;SDS011;23318;50.966;5.284;2023-07-13T00:50:45;10.23;;;0.98;;
37459;SDS011;23318;50.966;5.284;2023-07-13T00:53:15;7.60;;;1.20;;
37459;SDS011;23318;50.966;5.284;2023-07-13T00:55:41;4.03;;;1.42;;
37459;SDS011;23318;50.966;5.284;2023-07-13T00:58:07;9.02;;;1.42;;
37459;SDS011;23318;50.966;5.284;2023-07-13T01:00:36;4.07;;;1.13;;
37459;SDS011;23318;50.966;5.284;2023-07-13T01:03:03;8.13;;;1.50;;
37459;SDS011;23318;50.966;5.284;2023-07-13T01:05:30;6.97;;;1.40;;
37459;SDS011;23318;50.966;5.284;2023-07-13T01:07:57;6.22;;;1.30;;
37459;SDS011;23318;50.966;5.284;2023-07-13T01:10:25;7.00;;;1.77;;
37459;SDS011;23318;50.966;5.284;2023-07-13T01:12:51;7.57;;;1.50;;
37459;SDS011;23318;50.966;5.284;2023-07-13T01:17:59;5.97;;;1.50;;
37459;SDS011;23318;50.966;5.284;2023-07-13T01:20:25;5.20;;;1.23;;
37459;SDS011;23318;50.966;5.284;2023-07-13T01:22:51;8.75;;;1.45;;
37459;SDS011;23318;50.966;5.284;2023-07-13T01:25:16;7.40;;;1.48;;
37459;SDS011;23318;50.966;5.284;2023-07-13T01:27:43;4.63;;;1.52;;
37459;SDS011;23318;50.966;5.284;2023-07-13T01:30:09;6.03;;;1.42;;
37459;SDS011;23318;50.966;5.284;2023-07-13T01:32:35;5.43;;;1.70;;
37459;SDS011;23318;50.966;5.284;2023-07-13T01:35:01;7.35;;;1.60;;
37459;SDS011;23318;50.966;5.284;2023-07-13T01:37:28;8.57;;;1.65;;
37459;SDS011;23318;50.966;5.284;2023-07-13T01:39:58;9.07;;;1.52;;
37459;SDS011;23318;50.966;5.284;2023-07-13T01:42:24;5.85;;;1.35;;
37459;SDS011;23318;50.966;5.284;2023-07-13T01:44:50;8.73;;;1.73;;
37459;SDS011;23318;50.966;5.284;2023-07-13T01:47:15;6.68;;;1.42;;
37459;SDS011;23318;50.966;5.284;2023-07-13T01:49:41;4.53;;;1.58;;
37459;SDS011;23318;50.966;5.284;2023-07-13T01:52:07;12.90;;;2.38;;
37459;SDS011;23318;50.966;5.284;2023-07-13T01:54:33;7.72;;;1.70;;
37459;SDS011;23318;50.966;5.284;2023-07-13T01:56:59;5.90;;;1.35;;
37459;SDS011;23318;50.966;5.284;2023-07-13T01:59:25;8.68;;;1.85;;
37459;SDS011;23318;50.966;5.284;2023-07-13T02:01:50;4.65;;;1.25;;
37459;SDS011;23318;50.966;5.284;2023-07-13T02:04:16;8.02;;;1.98;;
37459;SDS011;23318;50.966;5.284;2023-07-13T02:06:41;5.47;;;1.30;;
37459;SDS011;23318;50.966;5.284;2023-07-13T02:09:07;8.27;;;1.50;;
37459;SDS011;23318;50.966;5.284;2023-07-13T02:11:33;6.95;;;2.10;;
37459;SDS011;23318;50.966;5.284;2023-07-13T02:13:59;4.35;;;1.38;;
37459;SDS011;23318;50.966;5.284;2023-07-13T02:16:26;10.70;;;2.15;;
37459;SDS011;23318;50.966;5.284;2023-07-13T02:18:52;13.57;;;2.30;;
37459;SDS011;23318;50.966;5.284;2023-07-13T02:21:20;13.10;;;2.60;;
37459;SDS011;23318;50.966;5.284;2023-07-13T02:23:46;7.57;;;1.70;;
37459;SDS011;23318;50.966;5.284;2023-07-13T02:26:11;5.78;;;1.67;;
37459;SDS011;23318;50.966;5.284;2023-07-13T02:28:38;7.85;;;1.90;;
37459;SDS011;23318;50.966;5.284;2023-07-13T02:31:04;5.95;;;2.10;;
37459;SDS011;23318;50.966;5.284;2023-07-13T02:33:34;4.40;;;1.55;;
37459;SDS011;23318;50.966;5.284;2023-07-13T02:35:59;8.20;;;1.83;;
37459;SDS011;23318;50.966;5.284;2023-07-13T02:38:25;7.30;;;2.08;;
37459;SDS011;23318;50.966;5.284;2023-07-13T02:40:51;10.20;;;2.03;;
37459;SDS011;23318;50.966;5.284;2023-07-13T02:43:16;8.30;;;1.90;;
37459;SDS011;23318;50.966;5.284;2023-07-13T02:45:45;3.33;;;1.48;;
37459;SDS011;23318;50.966;5.284;2023-07-13T02:48:13;9.40;;;1.70;;
37459;SDS011;23318;50.966;5.284;2023-07-13T02:50:39;8.43;;;1.60;;
37459;SDS011;23318;50.966;5.284;2023-07-13T02:53:04;7.75;;;1.95;;
37459;SDS011;23318;50.966;5.284;2023-07-13T02:55:30;10.27;;;2.28;;
37459;SDS011;23318;50.966;5.284;2023-07-13T02:57:56;7.43;;;1.95;;
37459;SDS011;23318;50.966;5.284;2023-07-13T03:00:22;14.32;;;2.00;;
37459;SDS011;23318;50.966;5.284;2023-07-13T03:02:48;10.05;;;2.17;;
37459;SDS011;23318;50.966;5.284;2023-07-13T03:05:13;6.25;;;1.70;;
37459;SDS011;23318;50.966;5.284;2023-07-13T03:07:41;7.68;;;1.65;;
37459;SDS011;23318;50.966;5.284;2023-07-13T03:10:07;9.52;;;2.20;;
37459;SDS011;23318;50.966;5.284;2023-07-13T03:12:34;7.20;;;1.80;;
37459;SDS011;23318;50.966;5.284;2023-07-13T03:14:59;8.98;;;1.73;;
37459;SDS011;23318;50.966;5.284;2023-07-13T03:17:25;6.40;;;1.70;;
37459;SDS011;23318;50.966;5.284;2023-07-13T03:19:51;8.93;;;1.67;;
37459;SDS011;23318;50.966;5.284;2023-07-13T03:22:17;10.05;;;2.15;;
37459;SDS011;23318;50.966;5.284;2023-07-13T03:24:43;7.90;;;1.88;;
37459;SDS011;23318;50.966;5.284;2023-07-13T03:27:09;9.85;;;2.22;;
37459;SDS011;23318;50.966;5.284;2023-07-13T03:29:35;9.55;;;2.28;;
37459;SDS011;23318;50.966;5.284;2023-07-13T03:32:01;5.85;;;2.42;;
37459;SDS011;23318;50.966;5.284;2023-07-13T03:34:27;11.43;;;1.95;;
37459;SDS011;23318;50.966;5.284;2023-07-13T03:36:55;7.45;;;2.10;;
37459;SDS011;23318;50.966;5.284;2023-07-13T03:39:21;7.63;;;2.17;;
37459;SDS011;23318;50.966;5.284;2023-07-13T03:41:47;16.05;;;3.05;;
37459;SDS011;23318;50.966;5.284;2023-07-13T03:44:15;7.90;;;2.05;;
37459;SDS011;23318;50.966;5.284;2023-07-13T03:46:41;8.98;;;2.58;;
37459;SDS011;23318;50.966;5.284;2023-07-13T03:49:07;10.00;;;2.50;;
37459;SDS011;23318;50.966;5.284;2023-07-13T03:51:33;8.27;;;2.63;;
37459;SDS011;23318;50.966;5.284;2023-07-13T03:53:59;12.30;;;2.72;;
37459;SDS011;23318;50.966;5.284;2023-07-13T03:56:25;10.50;;;2.50;;
37459;SDS011;23318;50.966;5.284;2023-07-13T03:58:52;10.82;;;2.95;;
37459;SDS011;23318;50.966;5.284;2023-07-13T04:01:18;9.45;;;2.53;;
37459;SDS011;23318;50.966;5.284;2023-07-13T04:03:45;9.02;;;2.70;;
37459;SDS011;23318;50.966;5.284;2023-07-13T04:06:16;12.60;;;2.35;;
37459;SDS011;23318;50.966;5.284;2023-07-13T04:08:46;9.25;;;2.50;;
37459;SDS011;23318;50.966;5.284;2023-07-13T04:11:14;5.18;;;2.05;;
37459;SDS011;23318;50.966;5.284;2023-07-13T04:13:39;10.40;;;2.22;;
37459;SDS011;23318;50.966;5.284;2023-07-13T04:16:05;13.07;;;2.33;;
37459;SDS011;23318;50.966;5.284;2023-07-13T04:18:31;9.73;;;2.92;;
37459;SDS011;23318;50.966;5.284;2023-07-13T04:20:56;8.68;;;2.10;;
37459;SDS011;23318;50.966;5.284;2023-07-13T04:23:22;11.40;;;2.42;;
37459;SDS011;23318;50.966;5.284;2023-07-13T04:25:48;12.55;;;2.65;;
37459;SDS011;23318;50.966;5.284;2023-07-13T04:28:19;7.22;;;2.83;;
37459;SDS011;23318;50.966;5.284;2023-07-13T04:30:46;12.75;;;2.55;;
37459;SDS011;23318;50.966;5.284;2023-07-13T04:33:12;11.85;;;2.92;;
37459;SDS011;23318;50.966;5.284;2023-07-13T04:35:37;7.75;;;2.53;;
37459;SDS011;23318;50.966;5.284;2023-07-13T04:38:03;9.60;;;2.60;;
37459;SDS011;23318;50.966;5.284;2023-07-13T04:40:29;10.25;;;2.50;;
37459;SDS011;23318;50.966;5.284;2023-07-13T04:42:55;12.10;;;2.92;;
37459;SDS011;23318;50.966;5.284;2023-07-13T04:45:21;9.70;;;2.72;;
37459;SDS011;23318;50.966;5.284;2023-07-13T04:47:49;10.43;;;3.10;;
37459;SDS011;23318;50.966;5.284;2023-07-13T04:50:15;10.48;;;2.83;;
37459;SDS011;23318;50.966;5.284;2023-07-13T04:52:44;10.60;;;2.70;;
37459;SDS011;23318;50.966;5.284;2023-07-13T04:55:10;10.77;;;2.28;;
37459;SDS011;23318;50.966;5.284;2023-07-13T04:57:36;14.32;;;2.85;;
37459;SDS011;23318;50.966;5.284;2023-07-13T05:00:02;7.05;;;2.25;;
37459;SDS011;23318;50.966;5.284;2023-07-13T05:02:31;13.68;;;3.22;;
37459;SDS011;23318;50.966;5.284;2023-07-13T05:04:57;7.63;;;2.47;;
37459;SDS011;23318;50.966;5.284;2023-07-13T05:07:23;9.88;;;2.80;;
37459;SDS011;23318;50.966;5.284;2023-07-13T05:09:49;8.55;;;2.47;;
37459;SDS011;23318;50.966;5.284;2023-07-13T05:12:15;10.90;;;2.53;;
37459;SDS011;23318;50.966;5.284;2023-07-13T05:14:41;13.73;;;3.03;;
37459;SDS011;23318;50.966;5.284;2023-07-13T05:17:06;9.50;;;3.30;;
37459;SDS011;23318;50.966;5.284;2023-07-13T05:19:32;13.80;;;2.72;;
37459;SDS011;23318;50.966;5.284;2023-07-13T05:21:58;19.50;;;3.15;;
37459;SDS011;23318;50.966;5.284;2023-07-13T05:24:23;13.73;;;2.78;;
37459;SDS011;23318;50.966;5.284;2023-07-13T05:26:50;12.20;;;2.88;;
37459;SDS011;23318;50.966;5.284;2023-07-13T05:29:15;11.95;;;3.25;;
37459;SDS011;23318;50.966;5.284;2023-07-13T05:31:41;11.50;;;2.65;;
37459;SDS011;23318;50.966;5.284;2023-07-13T05:34:07;11.70;;;3.03;;
37459;SDS011;23318;50.966;5.284;2023-07-13T05:36:32;10.32;;;3.05;;
37459;SDS011;23318;50.966;5.284;2023-07-13T05:38:59;13.15;;;3.38;;
37459;SDS011;23318;50.966;5.284;2023-07-13T05:41:24;13.55;;;2.70;;
37459;SDS011;23318;50.966;5.284;2023-07-13T05:43:50;10.63;;;2.60;;
37459;SDS011;23318;50.966;5.284;2023-07-13T05:46:16;11.25;;;2.90;;
37459;SDS011;23318;50.966;5.284;2023-07-13T05:48:42;14.35;;;3.13;;
37459;SDS011;23318;50.966;5.284;2023-07-13T05:51:07;15.65;;;3.50;;
37459;SDS011;23318;50.966;5.284;2023-07-13T05:53:33;8.27;;;2.53;;
37459;SDS011;23318;50.966;5.284;2023-07-13T05:56:00;14.43;;;2.95;;
37459;SDS011;23318;50.966;5.284;2023-07-13T05:58:25;11.02;;;2.97;;
37459;SDS011;23318;50.966;5.284;2023-07-13T06:00:58;12.50;;;3.05;;
37459;SDS011;23318;50.966;5.284;2023-07-13T06:03:45;15.38;;;3.47;;
37459;SDS011;23318;50.966;5.284;2023-07-13T06:06:12;18.63;;;3.92;;
37459;SDS011;23318;50.966;5.284;2023-07-13T06:08:38;12.93;;;3.08;;
37459;SDS011;23318;50.966;5.284;2023-07-13T06:11:09;12.23;;;3.17;;
37459;SDS011;23318;50.966;5.284;2023-07-13T06:13:35;10.60;;;2.75;;
37459;SDS011;23318;50.966;5.284;2023-07-13T06:16:01;14.43;;;3.97;;
37459;SDS011;23318;50.966;5.284;2023-07-13T06:18:29;12.27;;;3.10;;
37459;SDS011;23318;50.966;5.284;2023-07-13T06:20:56;14.15;;;3.80;;
37459;SDS011;23318;50.966;5.284;2023-07-13T06:23:22;8.93;;;2.78;;
37459;SDS011;23318;50.966;5.284;2023-07-13T06:25:48;15.23;;;3.17;;
37459;SDS011;23318;50.966;5.284;2023-07-13T06:28:14;13.05;;;3.33;;
37459;SDS011;23318;50.966;5.284;2023-07-13T06:30:39;11.45;;;3.03;;
37459;SDS011;23318;50.966;5.284;2023-07-13T06:33:05;14.35;;;3.65;;
37459;SDS011;23318;50.966;5.284;2023-07-13T06:35:31;22.00;;;3.72;;
37459;SDS011;23318;50.966;5.284;2023-07-13T06:37:57;14.18;;;3.35;;
37459;SDS011;23318;50.966;5.284;2023-07-13T06:40:22;14.70;;;3.35;;
37459;SDS011;23318;50.966;5.284;2023-07-13T06:42:48;12.25;;;3.28;;
37459;SDS011;23318;50.966;5.284;2023-07-13T06:45:14;16.52;;;3.88;;
37459;SDS011;23318;50.966;5.284;2023-07-13T06:47:39;16.92;;;3.63;;
37459;SDS011;23318;50.966;5.284;2023-07-13T06:50:05;14.23;;;3.13;;
37459;SDS011;23318;50.966;5.284;2023-07-13T06:52:31;16.60;;;3.63;;
37459;SDS011;23318;50.966;5.284;2023-07-13T06:54:57;14.98;;;3.00;;
37459;SDS011;23318;50.966;5.284;2023-07-13T06:57:22;14.93;;;3.15;;
37459;SDS011;23318;50.966;5.284;2023-07-13T06:59:48;16.90;;;4.78;;
37459;SDS011;23318;50.966;5.284;2023-07-13T07:02:14;15.55;;;3.85;;
37459;SDS011;23318;50.966;5.284;2023-07-13T07:04:39;13.63;;;3.67;;
37459;SDS011;23318;50.966;5.284;2023-07-13T07:07:05;15.73;;;3.45;;
37459;SDS011;23318;50.966;5.284;2023-07-13T07:09:31;15.00;;;3.75;;
37459;SDS011;23318;50.966;5.284;2023-07-13T07:11:56;16.25;;;3.33;;
37459;SDS011;23318;50.966;5.284;2023-07-13T07:14:22;15.27;;;3.85;;
37459;SDS011;23318;50.966;5.284;2023-07-13T07:16:48;16.15;;;3.33;;
37459;SDS011;23318;50.966;5.284;2023-07-13T07:19:15;14.60;;;3.47;;
37459;SDS011;23318;50.966;5.284;2023-07-13T07:21:40;13.32;;;3.28;;
37459;SDS011;23318;50.966;5.284;2023-07-13T07:24:06;16.02;;;3.45;;
37459;SDS011;23318;50.966;5.284;2023-07-13T07:26:32;15.43;;;2.97;;
37459;SDS011;23318;50.966;5.284;2023-07-13T07:28:58;12.63;;;2.95;;
37459;SDS011;23318;50.966;5.284;2023-07-13T07:31:24;11.05;;;2.85;;
37459;SDS011;23318;50.966;5.284;2023-07-13T07:33:50;11.32;;;3.05;;
37459;SDS011;23318;50.966;5.284;2023-07-13T07:36:15;14.88;;;3.60;;
37459;SDS011;23318;50.966;5.284;2023-07-13T07:38:42;9.95;;;3.15;;
37459;SDS011;23318;50.966;5.284;2023-07-13T07:41:08;12.43;;;2.80;;
37459;SDS011;23318;50.966;5.284;2023-07-13T07:43:34;11.95;;;3.08;;
37459;SDS011;23318;50.966;5.284;2023-07-13T07:46:00;16.05;;;2.70;;
37459;SDS011;23318;50.966;5.284;2023-07-13T07:48:26;15.15;;;3.50;;
37459;SDS011;23318;50.966;5.284;2023-07-13T07:50:51;13.13;;;3.42;;
37459;SDS011;23318;50.966;5.284;2023-07-13T07:53:17;16.95;;;2.80;;
37459;SDS011;23318;50.966;5.284;2023-07-13T07:55:43;13.85;;;2.70;;
37459;SDS011;23318;50.966;5.284;2023-07-13T07:58:08;8.82;;;3.05;;
37459;SDS011;23318;50.966;5.284;2023-07-13T08:00:34;21.90;;;3.58;;
37459;SDS011;23318;50.966;5.284;2023-07-13T08:03:00;11.05;;;2.60;;
37459;SDS011;23318;50.966;5.284;2023-07-13T08:05:26;16.73;;;4.07;;
37459;SDS011;23318;50.966;5.284;2023-07-13T08:07:52;13.38;;;2.88;;
37459;SDS011;23318;50.966;5.284;2023-07-13T08:10:18;12.68;;;3.15;;
37459;SDS011;23318;50.966;5.284;2023-07-13T08:12:44;13.10;;;2.88;;
37459;SDS011;23318;50.966;5.284;2023-07-13T08:15:11;14.75;;;3.17;;
37459;SDS011;23318;50.966;5.284;2023-07-13T08:17:39;13.63;;;3.10;;
37459;SDS011;23318;50.966;5.284;2023-07-13T08:20:05;10.35;;;3.22;;
37459;SDS011;23318;50.966;5.284;2023-07-13T08:22:31;8.85;;;2.42;;
37459;SDS011;23318;50.966;5.284;2023-07-13T08:24:57;13.45;;;3.33;;
37459;SDS011;23318;50.966;5.284;2023-07-13T08:27:24;9.98;;;3.50;;
37459;SDS011;23318;50.966;5.284;2023-07-13T08:29:50;10.45;;;2.70;;
37459;SDS011;23318;50.966;5.284;2023-07-13T08:32:17;12.88;;;3.17;;
37459;SDS011;23318;50.966;5.284;2023-07-13T08:34:44;11.27;;;2.80;;
37459;SDS011;23318;50.966;5.284;2023-07-13T08:37:10;12.80;;;3.17;;
37459;SDS011;23318;50.966;5.284;2023-07-13T08:39:36;15.25;;;2.75;;
37459;SDS011;23318;50.966;5.284;2023-07-13T08:42:04;10.45;;;2.72;;
37459;SDS011;23318;50.966;5.284;2023-07-13T08:44:49;11.23;;;2.92;;
37459;SDS011;23318;50.966;5.284;2023-07-13T08:47:16;11.32;;;3.17;;
37459;SDS011;23318;50.966;5.284;2023-07-13T08:49:44;9.38;;;2.35;;
37459;SDS011;23318;50.966;5.284;2023-07-13T08:52:17;15.65;;;2.75;;
37459;SDS011;23318;50.966;5.284;2023-07-13T08:54:54;14.52;;;2.83;;
37459;SDS011;23318;50.966;5.284;2023-07-13T08:57:24;13.68;;;2.85;;
37459;SDS011;23318;50.966;5.284;2023-07-13T08:59:57;8.80;;;2.80;;
37459;SDS011;23318;50.966;5.284;2023-07-13T09:02:28;14.70;;;3.65;;
37459;SDS011;23318;50.966;5.284;2023-07-13T09:05:15;11.55;;;3.13;;
37459;SDS011;23318;50.966;5.284;2023-07-13T09:10:41;8.82;;;2.65;;
37459;SDS011;23318;50.966;5.284;2023-07-13T09:15:46;6.22;;;2.20;;
37459;SDS011;23318;50.966;5.284;2023-07-13T09:18:15;10.50;;;2.67;;
37459;SDS011;23318;50.966;5.284;2023-07-13T09:23:22;8.45;;;2.00;;
37459;SDS011;23318;50.966;5.284;2023-07-13T09:25:50;7.88;;;2.55;;
37459;SDS011;23318;50.966;5.284;2023-07-13T09:28:26;10.98;;;2.42;;
37459;SDS011;23318;50.966;5.284;2023-07-13T09:30:58;9.88;;;2.50;;
37459;SDS011;23318;50.966;5.284;2023-07-13T09:33:29;12.48;;;2.63;;
37459;SDS011;23318;50.966;5.284;2023-07-13T09:35:59;6.50;;;2.42;;
37459;SDS011;23318;50.966;5.284;2023-07-13T09:38:28;8.32;;;2.00;;
37459;SDS011;23318;50.966;5.284;2023-07-13T09:46:34;7.45;;;2.15;;
37459;SDS011;23318;50.966;5.284;2023-07-13T09:49:00;8.18;;;2.08;;
37459;SDS011;23318;50.966;5.284;2023-07-13T09:51:29;5.38;;;1.70;;
37459;SDS011;23318;50.966;5.284;2023-07-13T09:53:55;8.55;;;1.63;;
37459;SDS011;23318;50.966;5.284;2023-07-13T09:56:23;7.65;;;2.10;;
37459;SDS011;23318;50.966;5.284;2023-07-13T09:58:51;9.65;;;2.13;;
37459;SDS011;23318;50.966;5.284;2023-07-13T10:01:30;6.72;;;2.00;;
37459;SDS011;23318;50.966;5.284;2023-07-13T10:04:12;10.30;;;2.13;;
37459;SDS011;23318;50.966;5.284;2023-07-13T10:06:41;4.13;;;1.50;;
37459;SDS011;23318;50.966;5.284;2023-07-13T10:09:08;5.90;;;1.58;;
37459;SDS011;23318;50.966;5.284;2023-07-13T10:11:35;5.65;;;1.40;;
37459;SDS011;23318;50.966;5.284;2023-07-13T10:14:02;8.13;;;1.67;;
37459;SDS011;23318;50.966;5.284;2023-07-13T10:16:39;5.68;;;1.55;;
37459;SDS011;23318;50.966;5.284;2023-07-13T10:19:12;7.85;;;2.05;;
37459;SDS011;23318;50.966;5.284;2023-07-13T10:21:52;3.33;;;1.65;;
37459;SDS011;23318;50.966;5.284;2023-07-13T10:24:27;6.60;;;1.67;;
37459;SDS011;23318;50.966;5.284;2023-07-13T10:27:05;6.88;;;2.10;;
37459;SDS011;23318;50.966;5.284;2023-07-13T10:29:43;9.02;;;1.60;;
37459;SDS011;23318;50.966;5.284;2023-07-13T10:32:12;5.57;;;1.40;;
37459;SDS011;23318;50.966;5.284;2023-07-13T10:34:39;6.78;;;1.50;;
37459;SDS011;23318;50.966;5.284;2023-07-13T10:37:14;7.82;;;1.77;;
37459;SDS011;23318;50.966;5.284;2023-07-13T10:39:45;3.65;;;1.40;;
37459;SDS011;23318;50.966;5.284;2023-07-13T10:42:13;5.43;;;1.08;;
37459;SDS011;23318;50.966;5.284;2023-07-13T10:44:48;6.28;;;1.50;;
37459;SDS011;23318;50.966;5.284;2023-07-13T10:47:15;7.60;;;1.63;;
37459;SDS011;23318;50.966;5.284;2023-07-13T10:49:43;9.48;;;1.90;;
37459;SDS011;23318;50.966;5.284;2023-07-13T10:55:02;7.70;;;1.95;;
37459;SDS011;23318;50.966;5.284;2023-07-13T10:57:32;5.05;;;1.35;;
37459;SDS011;23318;50.966;5.284;2023-07-13T11:00:14;6.47;;;1.70;;
37459;SDS011;23318;50.966;5.284;2023-07-13T11:02:42;8.02;;;2.20;;
37459;SDS011;23318;50.966;5.284;2023-07-13T11:05:22;6.72;;;1.63;;
37459;SDS011;23318;50.966;5.284;2023-07-13T11:08:03;8.82;;;2.08;;
37459;SDS011;23318;50.966;5.284;2023-07-13T11:16:11;5.43;;;1.35;;
37459;SDS011;23318;50.966;5.284;2023-07-13T11:18:50;6.40;;;1.33;;
37459;SDS011;23318;50.966;5.284;2023-07-13T11:21:41;3.37;;;1.47;;
37459;SDS011;23318;50.966;5.284;2023-07-13T11:27:33;5.35;;;1.52;;
37459;SDS011;23318;50.966;5.284;2023-07-13T11:30:35;7.38;;;1.10;;
37459;SDS011;23318;50.966;5.284;2023-07-13T11:35:59;5.10;;;1.00;;
37459;SDS011;23318;50.966;5.284;2023-07-13T11:38:33;2.47;;;1.00;;
37459;SDS011;23318;50.966;5.284;2023-07-13T11:41:06;5.75;;;1.42;;
37459;SDS011;23318;50.966;5.284;2023-07-13T11:43:55;6.65;;;1.48;;
37459;SDS011;23318;50.966;5.284;2023-07-13T11:46:27;8.18;;;1.65;;
37459;SDS011;23318;50.966;5.284;2023-07-13T11:48:54;5.82;;;1.30;;
37459;SDS011;23318;50.966;5.284;2023-07-13T11:51:33;3.60;;;1.40;;
37459;SDS011;23318;50.966;5.284;2023-07-13T11:54:02;5.95;;;1.33;;
37459;SDS011;23318;50.966;5.284;2023-07-13T11:56:48;2.42;;;1.30;;
37459;SDS011;23318;50.966;5.284;2023-07-13T11:59:15;3.97;;;1.48;;
37459;SDS011;23318;50.966;5.284;2023-07-13T12:01:46;3.60;;;1.42;;
37459;SDS011;23318;50.966;5.284;2023-07-13T12:04:22;4.78;;;1.20;;
37459;SDS011;23318;50.966;5.284;2023-07-13T12:06:54;4.63;;;1.33;;
37459;SDS011;23318;50.966;5.284;2023-07-13T12:09:40;6.13;;;0.98;;
37459;SDS011;23318;50.966;5.284;2023-07-13T12:12:17;3.22;;;1.30;;
37459;SDS011;23318;50.966;5.284;2023-07-13T12:14:44;7.32;;;1.50;;
37459;SDS011;23318;50.966;5.284;2023-07-13T12:17:18;3.17;;;0.90;;
37459;SDS011;23318;50.966;5.284;2023-07-13T12:19:47;9.30;;;1.58;;
37459;SDS011;23318;50.966;5.284;2023-07-13T12:22:14;6.53;;;1.70;;
37459;SDS011;23318;50.966;5.284;2023-07-13T12:24:43;5.13;;;1.10;;
37459;SDS011;23318;50.966;5.284;2023-07-13T12:27:20;9.75;;;1.63;;
37459;SDS011;23318;50.966;5.284;2023-07-13T12:30:02;5.68;;;1.63;;
37459;SDS011;23318;50.966;5.284;2023-07-13T12:33:00;6.97;;;1.25;;
37459;SDS011;23318;50.966;5.284;2023-07-13T12:35:42;3.17;;;1.00;;
37459;SDS011;23318;50.966;5.284;2023-07-13T12:38:12;4.55;;;1.55;;
37459;SDS011;23318;50.966;5.284;2023-07-13T12:40:38;7.38;;;1.90;;
37459;SDS011;23318;50.966;5.284;2023-07-13T12:43:09;5.50;;;1.10;;
37459;SDS011;23318;50.966;5.284;2023-07-13T12:45:37;4.28;;;1.17;;
37459;SDS011;23318;50.966;5.284;2023-07-13T12:48:05;4.68;;;1.27;;
37459;SDS011;23318;50.966;5.284;2023-07-13T12:50:46;5.28;;;1.40;;
37459;SDS011;23318;50.966;5.284;2023-07-13T12:53:16;5.93;;;1.27;;
37459;SDS011;23318;50.966;5.284;2023-07-13T12:55:54;4.47;;;1.48;;
37459;SDS011;23318;50.966;5.284;2023-07-13T13:01:10;4.40;;;1.10;;
37459;SDS011;23318;50.966;5.284;2023-07-13T13:03:39;3.90;;;1.10;;
37459;SDS011;23318;50.966;5.284;2023-07-13T13:08:44;3.45;;;1.48;;
37459;SDS011;23318;50.966;5.284;2023-07-13T13:11:11;5.03;;;0.90;;
37459;SDS011;23318;50.966;5.284;2023-07-13T13:13:40;5.88;;;1.10;;
37459;SDS011;23318;50.966;5.284;2023-07-13T13:18:43;3.67;;;1.25;;
37459;SDS011;23318;50.966;5.284;2023-07-13T13:21:10;3.42;;;1.40;;
37459;SDS011;23318;50.966;5.284;2023-07-13T13:23:36;7.30;;;1.50;;
37459;SDS011;23318;50.966;5.284;2023-07-13T13:26:02;3.75;;;1.50;;
37459;SDS011;23318;50.966;5.284;2023-07-13T13:28:31;4.95;;;1.40;;
37459;SDS011;23318;50.966;5.284;2023-07-13T13:30:57;5.70;;;1.63;;
37459;SDS011;23318;50.966;5.284;2023-07-13T13:33:23;2.83;;;1.63;;
37459;SDS011;23318;50.966;5.284;2023-07-13T13:35:48;2.00;;;1.27;;
37459;SDS011;23318;50.966;5.284;2023-07-13T13:38:19;2.78;;;1.38;;
37459;SDS011;23318;50.966;5.284;2023-07-13T13:40:48;5.85;;;1.38;;
37459;SDS011;23318;50.966;5.284;2023-07-13T13:43:14;1.90;;;1.27;;
37459;SDS011;23318;50.966;5.284;2023-07-13T13:45:41;3.40;;;1.30;;
37459;SDS011;23318;50.966;5.284;2023-07-13T13:48:11;2.17;;;1.20;;
37459;SDS011;23318;50.966;5.284;2023-07-13T13:50:40;6.13;;;1.20;;
37459;SDS011;23318;50.966;5.284;2023-07-13T13:53:09;2.08;;;1.10;;
37459;SDS011;23318;50.966;5.284;2023-07-13T13:55:37;3.00;;;1.60;;
37459;SDS011;23318;50.966;5.284;2023-07-13T13:58:03;5.40;;;1.80;;
37459;SDS011;23318;50.966;5.284;2023-07-13T14:00:29;7.53;;;1.52;;
37459;SDS011;23318;50.966;5.284;2023-07-13T14:02:55;1.55;;;1.25;;
37459;SDS011;23318;50.966;5.284;2023-07-13T14:05:23;5.70;;;1.70;;
37459;SDS011;23318;50.966;5.284;2023-07-13T14:07:52;2.83;;;1.50;;
37459;SDS011;23318;50.966;5.284;2023-07-13T14:10:19;3.83;;;1.40;;
37459;SDS011;23318;50.966;5.284;2023-07-13T14:12:47;3.88;;;1.42;;
37459;SDS011;23318;50.966;5.284;2023-07-13T14:15:20;2.25;;;1.27;;
37459;SDS011;23318;50.966;5.284;2023-07-13T14:17:47;3.22;;;1.20;;
37459;SDS011;23318;50.966;5.284;2023-07-13T14:20:17;2.67;;;1.48;;
37459;SDS011;23318;50.966;5.284;2023-07-13T14:22:43;4.43;;;1.60;;
37459;SDS011;23318;50.966;5.284;2023-07-13T14:25:13;3.25;;;1.38;;
37459;SDS011;23318;50.966;5.284;2023-07-13T14:27:40;3.03;;;1.63;;
37459;SDS011;23318;50.966;5.284;2023-07-13T14:30:14;4.53;;;1.80;;
37459;SDS011;23318;50.966;5.284;2023-07-13T14:32:40;4.70;;;1.42;;
37459;SDS011;23318;50.966;5.284;2023-07-13T14:35:07;3.17;;;1.35;;
37459;SDS011;23318;50.966;5.284;2023-07-13T14:37:40;4.45;;;1.48;;
37459;SDS011;23318;50.966;5.284;2023-07-13T14:40:16;5.35;;;1.70;;
37459;SDS011;23318;50.966;5.284;2023-07-13T14:42:51;3.03;;;1.30;;
37459;SDS011;23318;50.966;5.284;2023-07-13T14:45:18;3.95;;;1.35;;
37459;SDS011;23318;50.966;5.284;2023-07-13T14:47:45;2.50;;;1.52;;
37459;SDS011;23318;50.966;5.284;2023-07-13T14:50:15;3.00;;;1.65;;
37459;SDS011;23318;50.966;5.284;2023-07-13T14:52:44;4.32;;;1.52;;
37459;SDS011;23318;50.966;5.284;2023-07-13T14:55:12;2.35;;;1.00;;
37459;SDS011;23318;50.966;5.284;2023-07-13T14:57:39;4.00;;;1.30;;
37459;SDS011;23318;50.966;5.284;2023-07-13T15:00:12;3.72;;;1.23;;
37459;SDS011;23318;50.966;5.284;2023-07-13T15:02:41;4.30;;;1.38;;
37459;SDS011;23318;50.966;5.284;2023-07-13T15:07:38;2.05;;;1.00;;
37459;SDS011;23318;50.966;5.284;2023-07-13T15:12:40;3.08;;;1.33;;
37459;SDS011;23318;50.966;5.284;2023-07-13T15:15:05;4.60;;;1.20;;
37459;SDS011;23318;50.966;5.284;2023-07-13T15:17:36;2.10;;;1.00;;
37459;SDS011;23318;50.966;5.284;2023-07-13T15:20:06;4.18;;;1.48;;
37459;SDS011;23318;50.966;5.284;2023-07-13T15:22:48;2.22;;;1.00;;
37459;SDS011;23318;50.966;5.284;2023-07-13T15:25:19;2.85;;;0.85;;
37459;SDS011;23318;50.966;5.284;2023-07-13T15:27:52;2.58;;;1.02;;
37459;SDS011;23318;50.966;5.284;2023-07-13T15:30:19;3.78;;;1.10;;
37459;SDS011;23318;50.966;5.284;2023-07-13T15:32:45;3.55;;;1.40;;
37459;SDS011;23318;50.966;5.284;2023-07-13T15:35:18;4.05;;;1.20;;
37459;SDS011;23318;50.966;5.284;2023-07-13T15:37:47;2.30;;;0.80;;